Time;durP1;ratioP1;P1;durP2;ratioP2;P2;SDS_P1;SDS_P2;PMS_P1;PMS_P2;Temp;Humidity;BMP_temperature;BMP_pressure;BME280_temperature;BME280_humidity;BME280_pressure;Samples;Min_cycle;Max_cycle;Signal;HPM_P1;HPM_P2
2023/05/04 00:02:21;;;;;;;10.90;10.50;;;8.00;99.90;;;;;;5143222;27;20500;-68
2023/05/04 00:04:48;;;;;;;11.57;11.17;;;8.00;99.90;;;;;;5147169;27;20822;-69
2023/05/04 00:07:15;;;;;;;11.57;11.17;;;8.00;99.90;;;;;;5137931;27;20466;-68
2023/05/04 00:09:43;;;;;;;11.20;10.80;;;7.90;99.90;;;;;;5147375;27;20455;-69
2023/05/04 00:12:11;;;;;;;11.67;11.27;;;7.80;99.90;;;;;;5140402;27;20486;-69
2023/05/04 00:14:38;;;;;;;11.27;10.87;;;7.70;99.90;;;;;;5147497;27;20487;-69
2023/05/04 00:17:06;;;;;;;11.60;11.20;;;7.60;99.90;;;;;;5142891;27;20479;-68
2023/05/04 00:19:34;;;;;;;10.93;10.53;;;7.70;99.90;;;;;;5134696;27;20495;-70
2023/05/04 00:22:02;;;;;;;10.77;10.37;;;7.80;99.90;;;;;;5140726;27;20455;-68
2023/05/04 00:24:29;;;;;;;10.97;10.57;;;7.70;99.90;;;;;;5136765;27;20958;-69
2023/05/04 00:26:58;;;;;;;11.00;10.60;;;7.70;99.90;;;;;;5149194;27;20538;-68
2023/05/04 00:29:25;;;;;;;11.00;10.60;;;7.70;99.90;;;;;;5138017;27;20464;-68
2023/05/04 00:31:52;;;;;;;10.77;10.37;;;7.80;99.90;;;;;;5151341;27;20463;-69
2023/05/04 00:34:19;;;;;;;11.13;10.73;;;7.80;99.90;;;;;;5137055;27;20513;-68
2023/05/04 00:36:47;;;;;;;10.70;10.30;;;7.80;99.90;;;;;;5146340;27;20890;-69
2023/05/04 00:39:14;;;;;;;10.60;10.20;;;7.80;99.90;;;;;;5140909;27;20989;-69
2023/05/04 00:41:41;;;;;;;11.60;11.00;;;7.80;99.90;;;;;;5141804;27;20464;-69
2023/05/04 00:44:09;;;;;;;10.90;10.50;;;7.90;99.90;;;;;;5142406;27;20487;-69
2023/05/04 00:46:37;;;;;;;10.50;10.10;;;7.90;99.90;;;;;;5145363;27;20952;-68
2023/05/04 00:49:04;;;;;;;11.57;11.07;;;7.90;99.90;;;;;;5135858;27;20508;-68
2023/05/04 00:51:32;;;;;;;10.77;10.37;;;7.90;99.90;;;;;;5146880;27;20463;-68
2023/05/04 00:53:59;;;;;;;10.77;10.37;;;7.90;99.90;;;;;;5142607;27;20824;-68
2023/05/04 00:56:28;;;;;;;11.03;10.63;;;7.90;99.90;;;;;;5149958;27;20455;-69
2023/05/04 00:58:57;;;;;;;10.80;10.40;;;7.80;99.90;;;;;;5134919;27;20451;-69
2023/05/04 01:01:25;;;;;;;10.60;10.20;;;7.60;99.90;;;;;;5143998;27;20495;-68
2023/05/04 01:03:55;;;;;;;11.00;10.60;;;7.50;99.90;;;;;;5144154;27;20503;-68
2023/05/04 01:06:31;;;;;;;11.10;10.70;;;7.50;99.90;;;;;;5142271;27;20458;-68
2023/05/04 01:09:03;;;;;;;10.87;10.47;;;7.50;99.90;;;;;;5142731;27;20454;-69
2023/05/04 01:11:39;;;;;;;11.00;10.60;;;7.50;99.90;;;;;;5137446;27;20460;-68
2023/05/04 01:14:06;;;;;;;11.70;11.20;;;7.60;99.90;;;;;;5143211;27;20463;-68
2023/05/04 01:16:35;;;;;;;10.50;10.10;;;7.70;99.90;;;;;;5140301;27;20491;-69
2023/05/04 01:19:03;;;;;;;11.33;10.93;;;7.70;99.90;;;;;;5148059;27;20455;-68
2023/05/04 01:21:31;;;;;;;10.40;10.00;;;7.70;99.90;;;;;;5133477;27;21008;-68
2023/05/04 01:23:59;;;;;;;10.60;10.20;;;7.70;99.90;;;;;;5139088;27;20467;-68
2023/05/04 01:26:29;;;;;;;11.67;11.17;;;7.70;99.90;;;;;;5142138;27;20463;-69
2023/05/04 01:29:03;;;;;;;10.10;9.70;;;7.70;99.90;;;;;;5145388;27;20448;-68
2023/05/04 01:31:32;;;;;;;10.37;9.80;;;7.70;99.90;;;;;;5134226;27;20456;-68
2023/05/04 01:34:00;;;;;;;10.33;9.93;;;7.70;99.90;;;;;;5145678;27;20526;-69
2023/05/04 01:36:27;;;;;;;9.83;9.53;;;7.70;99.90;;;;;;5141370;27;20987;-68
2023/05/04 01:38:58;;;;;;;10.13;9.80;;;7.70;99.90;;;;;;5141637;27;20945;-68
2023/05/04 01:41:25;;;;;;;11.20;10.70;;;7.70;99.90;;;;;;5147051;27;20498;-68
2023/05/04 01:43:53;;;;;;;9.53;9.23;;;7.70;99.90;;;;;;5140726;27;20855;-69
2023/05/04 01:46:21;;;;;;;9.90;9.50;;;7.70;99.90;;;;;;5149563;27;20545;-68
2023/05/04 01:48:47;;;;;;;10.63;10.17;;;7.70;99.90;;;;;;5142123;27;20471;-68
2023/05/04 01:51:14;;;;;;;9.93;9.53;;;7.70;99.90;;;;;;5133395;27;20937;-68
2023/05/04 01:53:42;;;;;;;10.50;10.00;;;7.70;99.90;;;;;;5149398;27;20833;-68
2023/05/04 01:56:10;;;;;;;10.00;9.60;;;7.70;99.90;;;;;;5142893;27;20558;-68
2023/05/04 01:58:37;;;;;;;10.50;10.10;;;7.80;99.90;;;;;;5153446;27;20540;-68
2023/05/04 02:01:05;;;;;;;9.30;9.00;;;7.80;99.90;;;;;;5139554;27;20479;-68
2023/05/04 02:03:32;;;;;;;9.83;9.47;;;7.80;99.90;;;;;;5149473;27;20486;-68
2023/05/04 02:05:59;;;;;;;10.30;9.90;;;7.70;99.90;;;;;;5143895;27;20471;-68
2023/05/04 02:08:26;;;;;;;9.97;9.67;;;7.70;99.90;;;;;;5153343;27;20546;-68
2023/05/04 02:10:53;;;;;;;10.77;10.37;;;7.70;99.90;;;;;;5150838;27;20824;-68
2023/05/04 02:13:22;;;;;;;9.97;9.57;;;7.70;99.90;;;;;;5136048;27;20996;-68
2023/05/04 02:15:49;;;;;;;9.87;9.57;;;7.60;99.90;;;;;;5146721;27;20520;-68
2023/05/04 02:18:16;;;;;;;10.20;9.80;;;7.60;99.90;;;;;;5147438;27;20524;-67
2023/05/04 02:20:43;;;;;;;10.07;9.77;;;7.50;99.90;;;;;;5137455;27;20594;-68
2023/05/04 02:23:10;;;;;;;10.90;10.50;;;7.50;99.90;;;;;;5147184;27;20495;-68
2023/05/04 02:25:41;;;;;;;10.60;10.20;;;7.40;99.90;;;;;;5148970;27;20702;-68
2023/05/04 02:28:08;;;;;;;10.80;10.40;;;7.40;99.90;;;;;;5149289;27;20814;-68
2023/05/04 02:30:37;;;;;;;10.80;10.40;;;7.30;99.90;;;;;;5156004;27;20511;-68
2023/05/04 02:33:04;;;;;;;11.03;10.63;;;7.30;99.90;;;;;;5151354;27;20482;-68
2023/05/04 02:35:31;;;;;;;10.67;10.27;;;7.30;99.90;;;;;;5148059;27;20832;-68
2023/05/04 02:37:58;;;;;;;10.40;9.90;;;7.30;99.90;;;;;;5150541;27;20489;-68
2023/05/04 02:40:25;;;;;;;10.60;10.20;;;7.30;99.90;;;;;;5145902;27;20580;-68
2023/05/04 02:42:52;;;;;;;10.33;9.93;;;7.40;99.90;;;;;;5147775;27;20846;-67
2023/05/04 02:45:19;;;;;;;10.30;9.90;;;7.40;99.90;;;;;;5139030;27;20474;-67
2023/05/04 02:47:48;;;;;;;10.57;10.17;;;7.40;99.90;;;;;;5147246;27;20459;-67
2023/05/04 02:50:15;;;;;;;10.53;10.13;;;7.50;99.90;;;;;;5143669;27;21005;-67
2023/05/04 02:52:42;;;;;;;12.03;11.50;;;7.50;99.90;;;;;;5138575;27;20821;-67
2023/05/04 02:55:10;;;;;;;10.67;10.27;;;7.60;99.90;;;;;;5146563;27;20886;-67
2023/05/04 02:57:37;;;;;;;11.20;10.80;;;7.60;99.90;;;;;;5144679;27;20862;-67
2023/05/04 03:00:05;;;;;;;10.60;10.20;;;7.60;99.90;;;;;;5140135;27;20451;-67
2023/05/04 03:02:32;;;;;;;11.37;10.97;;;7.60;99.90;;;;;;5134149;27;20505;-69
2023/05/04 03:05:00;;;;;;;10.50;10.10;;;7.60;99.90;;;;;;5147778;27;20471;-68
2023/05/04 03:07:28;;;;;;;10.20;9.80;;;7.60;99.90;;;;;;5139669;27;20946;-69
2023/05/04 03:09:55;;;;;;;10.50;10.10;;;7.60;99.90;;;;;;5144188;27;20484;-68
2023/05/04 03:12:22;;;;;;;10.37;9.97;;;7.50;99.90;;;;;;5142938;27;21313;-68
2023/05/04 03:14:49;;;;;;;11.90;11.20;;;7.50;99.90;;;;;;5141995;27;20485;-68
2023/05/04 03:17:17;;;;;;;10.60;10.20;;;7.50;99.90;;;;;;5145745;27;20483;-68
2023/05/04 03:19:44;;;;;;;10.30;9.90;;;7.50;99.90;;;;;;5137309;27;20459;-68
2023/05/04 03:22:12;;;;;;;10.03;9.73;;;7.50;99.90;;;;;;5147374;27;20491;-68
2023/05/04 03:24:40;;;;;;;10.90;10.50;;;7.50;99.90;;;;;;5147132;27;20455;-68
2023/05/04 03:27:07;;;;;;;10.30;9.90;;;7.40;99.90;;;;;;5142618;27;20459;-68
2023/05/04 03:29:35;;;;;;;13.03;12.23;;;7.40;99.90;;;;;;5144200;27;21029;-68
2023/05/04 03:32:02;;;;;;;11.10;10.70;;;7.50;99.90;;;;;;5141277;27;20456;-68
2023/05/04 03:34:30;;;;;;;10.67;10.27;;;7.60;99.90;;;;;;5141708;27;20460;-68
2023/05/04 03:36:57;;;;;;;11.60;11.10;;;7.60;99.90;;;;;;5135570;27;20451;-69
2023/05/04 03:39:25;;;;;;;10.77;10.37;;;7.60;99.90;;;;;;5141662;27;20958;-69
2023/05/04 03:41:52;;;;;;;11.50;11.00;;;7.70;99.90;;;;;;5149939;27;20475;-69
2023/05/04 03:44:19;;;;;;;11.20;10.80;;;7.70;99.90;;;;;;5135145;27;20459;-69
2023/05/04 03:46:47;;;;;;;11.30;10.90;;;7.80;99.90;;;;;;5145984;27;20455;-69
2023/05/04 03:49:13;;;;;;;12.10;11.60;;;7.90;99.90;;;;;;5144661;27;20501;-69
2023/05/04 03:51:41;;;;;;;10.87;10.47;;;7.90;99.90;;;;;;5136890;27;20467;-69
2023/05/04 03:54:09;;;;;;;11.30;10.90;;;7.80;99.90;;;;;;5141807;27;20464;-69
2023/05/04 03:56:37;;;;;;;11.93;11.43;;;7.70;99.90;;;;;;5147057;27;20769;-69
2023/05/04 03:59:04;;;;;;;11.70;11.30;;;7.70;99.90;;;;;;5147289;27;20456;-69
2023/05/04 04:01:32;;;;;;;11.83;11.30;;;7.70;99.90;;;;;;5136734;27;20494;-69
2023/05/04 04:03:59;;;;;;;11.20;10.80;;;7.60;99.90;;;;;;5151095;27;20514;-69
2023/05/04 04:06:26;;;;;;;11.20;10.80;;;7.50;99.90;;;;;;5136993;27;20931;-69
2023/05/04 04:08:54;;;;;;;11.20;10.80;;;7.40;99.90;;;;;;5142942;27;20460;-69
2023/05/04 04:11:20;;;;;;;11.20;10.80;;;7.30;99.90;;;;;;5137991;27;21001;-69
2023/05/04 04:13:48;;;;;;;11.53;11.13;;;7.30;99.90;;;;;;5137954;27;20483;-69
2023/05/04 04:16:15;;;;;;;11.37;10.97;;;7.30;99.90;;;;;;5145438;27;20815;-68
2023/05/04 04:18:42;;;;;;;11.00;10.60;;;7.30;99.90;;;;;;5140416;27;20491;-69
2023/05/04 04:21:09;;;;;;;10.60;10.20;;;7.30;99.90;;;;;;5134624;27;20497;-69
2023/05/04 04:23:37;;;;;;;11.07;10.67;;;7.20;99.90;;;;;;5147326;27;20592;-69
2023/05/04 04:26:05;;;;;;;12.50;12.00;;;7.10;99.90;;;;;;5142939;27;20463;-69
2023/05/04 04:28:31;;;;;;;12.20;11.70;;;7.10;99.90;;;;;;5137540;27;20456;-69
2023/05/04 04:31:00;;;;;;;12.50;12.00;;;7.00;99.90;;;;;;5146676;27;21025;-69
2023/05/04 04:33:27;;;;;;;12.27;11.77;;;7.00;99.90;;;;;;5138748;27;20468;-69
2023/05/04 04:35:55;;;;;;;12.50;12.00;;;7.00;99.90;;;;;;5145311;27;20468;-69
2023/05/04 04:38:23;;;;;;;11.63;11.23;;;7.10;99.90;;;;;;5139447;27;20568;-69
2023/05/04 04:40:50;;;;;;;11.90;11.50;;;7.10;99.90;;;;;;5149033;27;20482;-69
2023/05/04 04:43:17;;;;;;;13.03;12.40;;;7.20;99.90;;;;;;5146005;27;20455;-69
2023/05/04 04:45:45;;;;;;;11.43;11.03;;;7.20;99.90;;;;;;5144543;27;20463;-68
2023/05/04 04:48:15;;;;;;;11.60;11.20;;;7.30;99.90;;;;;;5146973;27;20512;-69
2023/05/04 04:50:42;;;;;;;12.00;11.50;;;7.40;99.90;;;;;;5137568;27;20534;-69
2023/05/04 04:53:09;;;;;;;11.37;10.97;;;7.50;99.90;;;;;;5141069;27;20451;-68
2023/05/04 04:55:37;;;;;;;11.90;11.47;;;7.60;99.90;;;;;;5140386;27;21048;-69
2023/05/04 04:58:04;;;;;;;12.07;11.60;;;7.70;99.90;;;;;;5142440;27;20906;-68
2023/05/04 05:00:30;;;;;;;12.00;11.50;;;7.90;99.90;;;;;;5144896;27;20965;-68
2023/05/04 05:02:57;;;;;;;12.03;11.53;;;8.10;99.90;;;;;;5134715;27;20876;-69
2023/05/04 05:05:25;;;;;;;12.47;11.97;;;8.30;99.90;;;;;;5132047;27;20464;-68
2023/05/04 05:07:52;;;;;;;14.03;13.23;;;8.40;99.90;;;;;;5134316;27;20508;-69
2023/05/04 05:10:20;;;;;;;13.83;13.23;;;8.60;99.90;;;;;;5141187;27;20944;-68
2023/05/04 05:12:47;;;;;;;13.10;12.60;;;8.80;99.90;;;;;;5134271;27;20482;-68
2023/05/04 05:15:14;;;;;;;13.50;12.90;;;9.00;99.90;;;;;;5142834;27;20500;-68
2023/05/04 05:17:41;;;;;;;12.80;12.30;;;9.20;99.90;;;;;;5136647;27;21087;-69
2023/05/04 05:20:10;;;;;;;12.93;12.43;;;9.40;99.90;;;;;;5148022;27;20474;-68
2023/05/04 05:22:39;;;;;;;13.20;12.70;;;9.60;99.90;;;;;;5136473;27;20575;-69
2023/05/04 05:25:07;;;;;;;13.50;12.97;;;9.70;99.90;;;;;;5138892;27;21021;-69
2023/05/04 05:27:34;;;;;;;16.53;15.73;;;9.90;99.90;;;;;;5136104;27;20887;-69
2023/05/04 05:30:02;;;;;;;13.97;13.37;;;10.10;99.90;;;;;;5132796;27;20867;-69
2023/05/04 05:32:30;;;;;;;13.50;12.97;;;10.20;99.90;;;;;;5138790;27;20447;-68
2023/05/04 05:34:57;;;;;;;14.20;13.60;;;10.30;99.90;;;;;;5131176;27;20451;-69
2023/05/04 05:37:25;;;;;;;13.90;13.30;;;10.40;99.90;;;;;;5138368;27;20840;-69
2023/05/04 05:39:53;;;;;;;14.50;13.90;;;10.60;99.90;;;;;;5131890;27;20456;-69
2023/05/04 05:42:20;;;;;;;14.20;13.60;;;10.70;99.90;;;;;;5137275;27;20496;-69
2023/05/04 05:44:47;;;;;;;14.73;14.13;;;10.90;99.90;;;;;;5139140;27;20447;-69
2023/05/04 05:47:14;;;;;;;14.13;13.53;;;11.00;99.90;;;;;;5134574;27;20462;-68
2023/05/04 05:49:41;;;;;;;13.97;13.37;;;11.00;99.90;;;;;;5141097;27;20443;-68
2023/05/04 05:52:08;;;;;;;14.10;13.50;;;11.20;99.90;;;;;;5142602;27;20462;-68
2023/05/04 05:54:35;;;;;;;14.17;13.57;;;11.40;99.90;;;;;;5136319;27;20456;-69
2023/05/04 05:57:04;;;;;;;14.53;13.93;;;11.50;99.90;;;;;;5133955;27;20531;-68
2023/05/04 05:59:31;;;;;;;14.57;13.97;;;11.70;99.90;;;;;;5144017;27;20456;-69
2023/05/04 06:01:58;;;;;;;15.23;14.63;;;11.90;99.90;;;;;;5141289;27;20494;-69
2023/05/04 06:04:25;;;;;;;15.20;14.60;;;12.10;99.90;;;;;;5137989;27;20515;-68
2023/05/04 06:06:52;;;;;;;14.87;14.27;;;12.30;99.90;;;;;;5140341;27;20459;-69
2023/05/04 06:09:19;;;;;;;15.07;14.47;;;12.30;99.90;;;;;;5134293;27;20460;-68
2023/05/04 06:11:46;;;;;;;14.93;14.33;;;12.50;99.90;;;;;;5140940;27;20463;-69
2023/05/04 06:14:15;;;;;;;15.27;14.60;;;12.60;99.90;;;;;;5142114;27;20479;-69
2023/05/04 06:16:41;;;;;;;15.53;14.83;;;12.80;99.90;;;;;;5134948;27;20484;-69
2023/05/04 06:19:08;;;;;;;15.83;15.13;;;12.90;99.90;;;;;;5133101;27;20460;-69
2023/05/04 06:21:35;;;;;;;16.23;15.53;;;13.10;99.90;;;;;;5135142;27;20484;-69
2023/05/04 06:24:02;;;;;;;16.10;15.40;;;13.20;99.90;;;;;;5133397;27;20761;-69
2023/05/04 06:26:29;;;;;;;15.80;15.10;;;13.40;99.90;;;;;;5145905;27;20459;-69
2023/05/04 06:28:56;;;;;;;16.00;15.30;;;13.50;99.90;;;;;;5139818;27;20833;-68
2023/05/04 06:31:25;;;;;;;16.27;15.57;;;13.60;99.90;;;;;;5139706;27;20510;-69
2023/05/04 06:33:52;;;;;;;16.13;15.43;;;13.60;99.90;;;;;;5138257;27;20495;-69
2023/05/04 06:36:18;;;;;;;16.20;15.50;;;13.70;99.90;;;;;;5136234;27;20504;-69
2023/05/04 06:38:45;;;;;;;15.90;15.20;;;13.90;99.90;;;;;;5141194;27;20467;-69
2023/05/04 06:41:12;;;;;;;16.20;15.50;;;14.10;99.90;;;;;;5136472;27;20467;-69
2023/05/04 06:43:41;;;;;;;17.27;16.40;;;14.10;99.90;;;;;;5143927;27;20454;-69
2023/05/04 06:46:08;;;;;;;15.93;15.23;;;14.10;99.90;;;;;;5139988;27;20503;-69
2023/05/04 06:48:37;;;;;;;15.97;15.27;;;14.30;99.90;;;;;;5149069;27;20484;-69
2023/05/04 06:51:03;;;;;;;15.90;15.20;;;14.40;99.90;;;;;;5139902;27;20464;-69
2023/05/04 06:53:30;;;;;;;16.40;15.60;;;14.50;99.90;;;;;;5142287;27;21045;-69
2023/05/04 06:55:57;;;;;;;16.63;15.83;;;14.50;99.90;;;;;;5142858;27;20861;-69
2023/05/04 06:58:24;;;;;;;16.37;15.67;;;14.50;99.90;;;;;;5143697;27;20463;-69
2023/05/04 07:00:52;;;;;;;16.10;15.40;;;14.60;99.90;;;;;;5144412;27;20465;-69
2023/05/04 07:03:19;;;;;;;15.60;14.90;;;14.60;99.90;;;;;;5152144;27;20537;-69
2023/05/04 07:05:49;;;;;;;16.47;15.67;;;14.80;99.90;;;;;;5145884;27;21002;-69
2023/05/04 07:08:18;;;;;;;16.13;15.43;;;14.90;99.90;;;;;;5137368;27;20967;-69
2023/05/04 07:10:45;;;;;;;16.63;15.83;;;14.80;99.90;;;;;;5143117;27;20470;-69
2023/05/04 07:13:12;;;;;;;15.80;15.10;;;14.90;99.90;;;;;;5147930;27;20834;-69
2023/05/04 07:15:39;;;;;;;16.07;15.37;;;15.20;99.90;;;;;;5149026;27;20456;-69
2023/05/04 07:18:06;;;;;;;16.07;15.27;;;15.40;99.90;;;;;;5144272;27;20527;-69
2023/05/04 07:20:33;;;;;;;16.10;15.40;;;15.50;99.90;;;;;;5144507;27;20515;-69
2023/05/04 07:23:01;;;;;;;15.40;14.70;;;15.80;99.90;;;;;;5140538;27;20536;-69
2023/05/04 07:25:29;;;;;;;16.63;15.83;;;15.70;99.90;;;;;;5141118;27;20464;-69
2023/05/04 07:27:57;;;;;;;15.37;14.67;;;15.80;99.90;;;;;;5136685;27;20456;-69
2023/05/04 07:30:25;;;;;;;16.00;15.30;;;16.00;99.90;;;;;;5133875;27;20480;-69
2023/05/04 07:32:52;;;;;;;15.87;15.17;;;16.00;99.90;;;;;;5130943;27;20471;-68
2023/05/04 07:35:20;;;;;;;15.77;15.07;;;16.20;99.90;;;;;;5134505;27;20516;-68
2023/05/04 07:37:47;;;;;;;16.50;15.70;;;16.30;99.90;;;;;;5134969;27;20494;-69
2023/05/04 07:40:15;;;;;;;15.33;14.63;;;16.40;99.90;;;;;;5145053;27;20490;-69
2023/05/04 07:42:42;;;;;;;15.23;14.53;;;16.60;99.90;;;;;;5145582;27;20612;-68
2023/05/04 07:45:10;;;;;;;15.97;15.27;;;16.60;99.90;;;;;;5140392;27;20462;-69
2023/05/04 07:47:37;;;;;;;15.53;14.83;;;16.60;99.90;;;;;;5137709;27;20456;-69
2023/05/04 07:50:04;;;;;;;15.60;14.90;;;16.60;99.90;;;;;;5134987;27;20459;-68
2023/05/04 07:52:31;;;;;;;16.50;15.70;;;16.90;99.90;;;;;;5141140;27;20471;-68
2023/05/04 07:54:59;;;;;;;15.90;15.20;;;17.00;99.90;;;;;;5140524;27;20463;-68
2023/05/04 07:57:27;;;;;;;15.83;15.13;;;17.10;99.90;;;;;;5140420;27;20455;-68
2023/05/04 07:59:56;;;;;;;15.47;14.77;;;17.40;99.90;;;;;;5139830;27;20466;-68
2023/05/04 08:02:23;;;;;;;15.53;14.83;;;17.50;99.90;;;;;;5141236;27;20486;-68
2023/05/04 08:04:50;;;;;;;15.60;14.90;;;17.50;99.90;;;;;;5137078;27;20452;-68
2023/05/04 08:07:19;;;;;;;15.53;14.83;;;17.60;99.90;;;;;;5135223;27;20620;-68
2023/05/04 08:09:46;;;;;;;20.97;19.80;;;17.90;99.90;;;;;;5140772;27;20463;-69
2023/05/04 08:12:13;;;;;;;16.23;15.53;;;18.10;99.90;;;;;;5144815;27;20475;-69
2023/05/04 08:14:42;;;;;;;15.70;15.00;;;18.10;99.90;;;;;;5137094;27;20817;-69
2023/05/04 08:17:09;;;;;;;15.90;15.20;;;18.20;99.90;;;;;;5139193;27;20483;-69
2023/05/04 08:19:36;;;;;;;16.93;16.13;;;18.50;99.90;;;;;;5143075;27;20452;-68
2023/05/04 08:22:03;;;;;;;15.70;15.00;;;18.80;99.90;;;;;;5139604;27;20526;-68
2023/05/04 08:24:30;;;;;;;16.10;15.40;;;19.00;99.90;;;;;;5137343;27;20914;-68
2023/05/04 08:26:58;;;;;;;15.80;15.10;;;18.90;99.90;;;;;;5139056;27;20945;-69
2023/05/04 08:29:26;;;;;;;15.83;15.13;;;19.00;99.90;;;;;;5140777;27;20456;-68
2023/05/04 08:31:56;;;;;;;16.47;15.67;;;19.20;99.90;;;;;;5140088;27;20934;-68
2023/05/04 08:34:24;;;;;;;15.60;14.90;;;18.80;99.90;;;;;;5145114;27;20471;-69
2023/05/04 08:36:51;;;;;;;15.60;14.90;;;19.50;99.90;;;;;;5137879;27;21041;-69
2023/05/04 08:39:18;;;;;;;15.60;14.90;;;20.10;99.90;;;;;;5143450;27;20972;-68
2023/05/04 08:41:45;;;;;;;15.70;15.00;;;20.70;99.90;;;;;;5140115;27;20461;-69
2023/05/04 08:44:12;;;;;;;15.23;14.60;;;21.00;99.90;;;;;;5136273;27;20455;-69
2023/05/04 08:46:41;;;;;;;15.60;14.90;;;20.90;99.90;;;;;;5140253;27;20457;-68
2023/05/04 08:49:10;;;;;;;16.67;15.87;;;21.60;99.90;;;;;;5134875;27;20479;-69
2023/05/04 08:51:37;;;;;;;15.70;15.00;;;21.80;99.90;;;;;;5140545;27;20536;-69
2023/05/04 08:54:09;;;;;;;15.67;14.97;;;22.30;99.50;;;;;;5138839;27;20460;-69
2023/05/04 08:56:37;;;;;;;15.97;15.23;;;22.60;98.70;;;;;;5144957;27;20550;-69
2023/05/04 08:59:04;;;;;;;15.00;14.40;;;22.50;97.70;;;;;;5133542;27;20467;-69
2023/05/04 09:01:32;;;;;;;15.20;14.60;;;22.50;97.80;;;;;;5141772;27;20724;-69
2023/05/04 09:04:02;;;;;;;15.47;14.87;;;22.70;97.80;;;;;;5146611;27;20498;-69
2023/05/04 09:06:31;;;;;;;17.53;16.73;;;23.10;96.00;;;;;;5140329;27;20451;-69
2023/05/04 09:08:58;;;;;;;16.40;15.70;;;23.50;95.10;;;;;;5140241;27;20455;-69
2023/05/04 09:11:25;;;;;;;16.83;15.83;;;23.40;94.40;;;;;;5140159;27;20463;-69
2023/05/04 09:13:52;;;;;;;15.50;14.90;;;23.30;93.70;;;;;;5134915;27;20544;-69
2023/05/04 09:16:19;;;;;;;15.43;14.83;;;23.70;94.50;;;;;;5141603;27;20487;-69
2023/05/04 09:18:46;;;;;;;15.60;14.90;;;24.10;93.40;;;;;;5130528;27;20547;-69
2023/05/04 09:21:14;;;;;;;15.50;14.90;;;24.10;93.00;;;;;;5143480;27;20458;-69
2023/05/04 09:23:49;;;;;;;15.90;15.20;;;24.00;92.40;;;;;;5147325;27;21004;-69
2023/05/04 09:26:27;;;;;;;15.80;15.20;;;24.40;92.70;;;;;;5139822;27;20459;-69
2023/05/04 09:28:54;;;;;;;15.23;14.63;;;25.00;91.30;;;;;;5133156;27;20549;-69
2023/05/04 09:31:22;;;;;;;16.10;15.40;;;25.30;90.60;;;;;;5135819;27;20509;-69
2023/05/04 09:33:48;;;;;;;16.50;15.80;;;25.50;89.70;;;;;;5147122;27;20480;-69
2023/05/04 09:36:18;;;;;;;15.57;14.97;;;25.90;89.40;;;;;;5139016;27;20759;-69
2023/05/04 09:38:45;;;;;;;15.70;15.00;;;25.80;86.20;;;;;;5140956;27;20456;-69
2023/05/04 09:41:14;;;;;;;15.20;14.60;;;25.40;86.00;;;;;;5140515;27;20453;-69
2023/05/04 09:43:43;;;;;;;17.77;16.50;;;25.20;87.40;;;;;;5145244;27;20527;-69
2023/05/04 09:46:21;;;;;;;15.50;14.90;;;25.10;86.00;;;;;;5137925;27;20809;-69
2023/05/04 09:48:52;;;;;;;16.83;16.13;;;25.50;87.20;;;;;;5134409;27;20746;-70
2023/05/04 09:51:21;;;;;;;15.83;15.13;;;26.00;85.30;;;;;;5144737;27;20455;-69
2023/05/04 09:53:49;;;;;;;15.00;14.40;;;26.50;82.80;;;;;;5147831;27;20455;-69
2023/05/04 09:56:26;;;;;;;15.27;14.67;;;26.40;82.20;;;;;;5143492;27;20558;-70
2023/05/04 09:58:56;;;;;;;15.03;14.33;;;26.90;81.90;;;;;;5134806;27;20692;-69
2023/05/04 10:01:23;;;;;;;15.40;14.80;;;27.10;80.20;;;;;;5144353;27;20485;-69
2023/05/04 10:03:52;;;;;;;15.13;14.53;;;26.80;78.60;;;;;;5143894;27;20575;-69
2023/05/04 10:06:20;;;;;;;15.00;14.40;;;26.80;79.40;;;;;;5143675;27;20542;-69
2023/05/04 10:08:49;;;;;;;15.13;14.53;;;27.40;78.00;;;;;;5138510;27;20973;-69
2023/05/04 10:11:19;;;;;;;15.27;14.67;;;27.30;77.00;;;;;;5138799;27;20486;-69
2023/05/04 10:13:46;;;;;;;14.77;14.17;;;28.40;75.30;;;;;;5145548;27;21012;-68
2023/05/04 10:16:26;;;;;;;14.70;14.10;;;28.70;74.70;;;;;;5132423;27;20496;-68
2023/05/04 10:19:08;;;;;;;15.27;14.57;;;29.10;72.80;;;;;;5144461;27;20540;-68
2023/05/04 10:21:47;;;;;;;16.60;15.90;;;28.90;71.60;;;;;;5137719;27;20456;-68
2023/05/04 10:24:49;;;;;;;15.50;14.80;;;29.20;69.60;;;;;;5138535;27;20484;-68
2023/05/04 10:27:21;;;;;;;15.73;15.13;;;28.50;68.50;;;;;;5125695;27;20465;-68
2023/05/04 10:29:50;;;;;;;16.00;15.30;;;28.10;69.40;;;;;;5145287;27;20456;-68
2023/05/04 10:32:20;;;;;;;15.40;14.80;;;28.20;68.90;;;;;;5148332;27;20454;-68
2023/05/04 10:34:47;;;;;;;15.23;14.63;;;28.30;66.90;;;;;;5147608;27;20543;-69
2023/05/04 10:37:18;;;;;;;14.60;14.00;;;28.00;66.60;;;;;;5146947;27;21180;-68
2023/05/04 10:39:51;;;;;;;15.57;14.87;;;28.20;67.80;;;;;;5143375;27;20464;-68
2023/05/04 10:42:21;;;;;;;14.73;14.13;;;28.10;66.70;;;;;;5136906;27;20456;-69
2023/05/04 10:44:52;;;;;;;14.93;14.33;;;27.90;67.40;;;;;;5146043;27;20467;-68
2023/05/04 10:47:28;;;;;;;15.00;14.40;;;27.90;67.40;;;;;;5150311;27;20969;-68
2023/05/04 10:50:01;;;;;;;15.43;14.80;;;27.50;65.60;;;;;;5138934;27;20831;-69
2023/05/04 10:52:29;;;;;;;15.13;14.53;;;28.30;64.20;;;;;;5140460;27;20460;-69
2023/05/04 10:55:00;;;;;;;15.40;14.70;;;28.40;65.30;;;;;;5139537;27;20484;-69
2023/05/04 10:57:29;;;;;;;16.30;15.60;;;29.20;62.90;;;;;;5146148;27;20498;-69
2023/05/04 10:59:56;;;;;;;15.80;15.10;;;29.30;60.60;;;;;;5141627;27;20463;-69
2023/05/04 11:02:24;;;;;;;15.50;14.90;;;29.60;60.30;;;;;;5139079;27;20838;-69
2023/05/04 11:05:00;;;;;;;16.40;15.70;;;29.90;60.80;;;;;;5128330;27;20455;-69
2023/05/04 11:07:36;;;;;;;16.20;15.50;;;29.90;58.00;;;;;;5137190;27;20458;-69
2023/05/04 11:10:03;;;;;;;15.53;14.93;;;29.60;58.70;;;;;;5142278;27;20458;-69
2023/05/04 11:12:33;;;;;;;15.60;15.00;;;29.90;59.20;;;;;;5144657;27;20558;-69
2023/05/04 11:15:07;;;;;;;15.87;15.20;;;30.40;58.50;;;;;;5145885;27;20846;-69
2023/05/04 11:17:34;;;;;;;16.33;15.63;;;30.60;57.50;;;;;;5137137;27;20531;-69
2023/05/04 11:20:01;;;;;;;24.03;16.90;;;30.80;57.60;;;;;;5140664;27;20460;-69
2023/05/04 11:22:34;;;;;;;17.27;16.27;;;30.20;55.50;;;;;;5143541;27;20459;-69
2023/05/04 11:25:02;;;;;;;16.10;15.30;;;30.30;55.80;;;;;;5149591;27;20451;-69
2023/05/04 11:27:29;;;;;;;15.70;15.00;;;30.40;54.70;;;;;;5137827;27;20517;-69
2023/05/04 11:29:59;;;;;;;15.47;14.87;;;30.10;54.60;;;;;;5136994;27;20463;-69
2023/05/04 11:32:36;;;;;;;25.30;17.03;;;29.60;55.80;;;;;;5141121;27;20448;-69
2023/05/04 11:35:04;;;;;;;16.97;15.63;;;29.80;54.10;;;;;;5142052;27;20451;-69
2023/05/04 11:37:37;;;;;;;15.10;14.50;;;30.00;53.80;;;;;;5141371;27;20459;-69
2023/05/04 11:40:09;;;;;;;15.07;14.47;;;29.80;54.80;;;;;;5144312;27;20895;-69
2023/05/04 11:42:38;;;;;;;18.17;17.00;;;29.20;53.30;;;;;;5141569;27;20468;-69
2023/05/04 11:45:10;;;;;;;16.40;15.70;;;29.80;54.50;;;;;;5133594;27;20894;-69
2023/05/04 11:47:38;;;;;;;15.37;14.77;;;30.40;54.30;;;;;;5139023;27;20870;-69
2023/05/04 11:50:07;;;;;;;15.30;14.70;;;30.70;54.60;;;;;;5140495;27;20467;-69
2023/05/04 11:52:35;;;;;;;15.83;15.13;;;30.80;54.00;;;;;;5139748;27;21120;-70
2023/05/04 11:55:02;;;;;;;15.10;14.50;;;30.40;51.70;;;;;;5141236;27;20547;-69
2023/05/04 11:57:30;;;;;;;14.87;14.27;;;29.70;52.30;;;;;;5140322;27;20806;-69
2023/05/04 11:59:57;;;;;;;15.13;14.43;;;30.40;52.10;;;;;;5142596;27;20466;-69
2023/05/04 12:02:26;;;;;;;15.67;14.97;;;31.10;52.60;;;;;;5140048;27;20467;-69
2023/05/04 12:04:54;;;;;;;15.00;14.40;;;31.60;51.90;;;;;;5152189;27;20450;-69
2023/05/04 12:07:21;;;;;;;15.30;14.70;;;31.70;51.60;;;;;;5145074;27;20660;-69
2023/05/04 12:09:49;;;;;;;14.73;14.13;;;32.00;51.70;;;;;;5145466;27;20512;-69
2023/05/04 12:12:19;;;;;;;15.03;14.43;;;31.80;50.00;;;;;;5149802;27;20514;-69
2023/05/04 12:14:50;;;;;;;14.80;14.20;;;31.20;50.80;;;;;;5149139;27;21130;-69
2023/05/04 12:17:18;;;;;;;15.30;14.70;;;31.50;50.90;;;;;;5139309;27;20512;-69
2023/05/04 12:19:50;;;;;;;15.53;14.90;;;32.00;49.40;;;;;;5139189;27;20558;-69
2023/05/04 12:22:18;;;;;;;15.97;15.27;;;32.20;49.00;;;;;;5146661;27;20470;-69
2023/05/04 12:24:45;;;;;;;15.20;14.60;;;32.50;49.40;;;;;;5141230;27;20448;-69
2023/05/04 12:27:15;;;;;;;15.23;14.63;;;32.10;48.00;;;;;;5146402;27;20969;-69
2023/05/04 12:29:42;;;;;;;15.03;14.43;;;32.30;48.40;;;;;;5141377;27;20519;-69
2023/05/04 12:32:09;;;;;;;15.10;14.50;;;31.90;48.50;;;;;;5135879;27;20459;-69
2023/05/04 12:34:37;;;;;;;14.60;14.00;;;32.20;47.30;;;;;;5141288;27;20479;-69
2023/05/04 12:37:05;;;;;;;15.77;14.60;;;31.90;49.50;;;;;;5141374;27;21163;-69
2023/05/04 12:39:33;;;;;;;14.87;14.27;;;32.40;48.10;;;;;;5138056;27;20464;-69